sensor_id;sensor_type;location;lat;lon;timestamp;P1;durP1;ratioP1;P2;durP2;ratioP2
76675;SDS011;65593;55.840;37.574;2022-12-07T00:04:26;7.20;;;3.57;;
76675;SDS011;65593;55.840;37.574;2022-12-07T00:09:26;10.40;;;3.83;;
76675;SDS011;65593;55.840;37.574;2022-12-07T00:14:27;9.77;;;3.97;;
76675;SDS011;65593;55.840;37.574;2022-12-07T00:19:28;7.57;;;3.75;;
76675;SDS011;65593;55.840;37.574;2022-12-07T00:24:28;6.73;;;3.27;;
76675;SDS011;65593;55.840;37.574;2022-12-07T00:29:29;8.67;;;3.77;;
76675;SDS011;65593;55.840;37.574;2022-12-07T00:34:29;9.73;;;4.03;;
76675;SDS011;65593;55.840;37.574;2022-12-07T00:39:30;7.80;;;3.72;;
76675;SDS011;65593;55.840;37.574;2022-12-07T00:44:31;9.77;;;3.60;;
76675;SDS011;65593;55.840;37.574;2022-12-07T00:49:31;10.47;;;3.97;;
76675;SDS011;65593;55.840;37.574;2022-12-07T00:54:32;8.63;;;4.00;;
76675;SDS011;65593;55.840;37.574;2022-12-07T00:59:32;10.17;;;4.27;;
76675;SDS011;65593;55.840;37.574;2022-12-07T01:04:33;8.35;;;3.90;;
76675;SDS011;65593;55.840;37.574;2022-12-07T01:09:34;7.30;;;3.97;;
76675;SDS011;65593;55.840;37.574;2022-12-07T01:14:35;10.13;;;4.82;;
76675;SDS011;65593;55.840;37.574;2022-12-07T01:19:35;8.68;;;4.38;;
76675;SDS011;65593;55.840;37.574;2022-12-07T01:24:36;9.57;;;4.23;;
76675;SDS011;65593;55.840;37.574;2022-12-07T01:29:36;9.23;;;3.97;;
76675;SDS011;65593;55.840;37.574;2022-12-07T01:34:37;10.97;;;4.50;;
76675;SDS011;65593;55.840;37.574;2022-12-07T01:39:38;8.77;;;4.18;;
76675;SDS011;65593;55.840;37.574;2022-12-07T01:50:16;8.43;;;3.63;;
76675;SDS011;65593;55.840;37.574;2022-12-07T01:55:17;9.25;;;4.40;;
76675;SDS011;65593;55.840;37.574;2022-12-07T02:00:19;11.30;;;4.10;;
76675;SDS011;65593;55.840;37.574;2022-12-07T02:05:20;8.23;;;4.40;;
76675;SDS011;65593;55.840;37.574;2022-12-07T02:10:23;10.07;;;4.10;;
76675;SDS011;65593;55.840;37.574;2022-12-07T02:15:29;8.37;;;3.80;;
76675;SDS011;65593;55.840;37.574;2022-12-07T02:26:16;9.00;;;4.18;;
76675;SDS011;65593;55.840;37.574;2022-12-07T02:31:32;9.95;;;4.10;;
76675;SDS011;65593;55.840;37.574;2022-12-07T02:36:35;8.10;;;3.97;;
76675;SDS011;65593;55.840;37.574;2022-12-07T02:41:44;8.52;;;4.25;;
76675;SDS011;65593;55.840;37.574;2022-12-07T02:46:55;12.18;;;4.38;;
76675;SDS011;65593;55.840;37.574;2022-12-07T02:52:01;8.93;;;4.13;;
76675;SDS011;65593;55.840;37.574;2022-12-07T03:02:16;11.27;;;4.45;;
76675;SDS011;65593;55.840;37.574;2022-12-07T03:07:21;11.13;;;4.37;;
76675;SDS011;65593;55.840;37.574;2022-12-07T03:12:35;9.43;;;4.40;;
76675;SDS011;65593;55.840;37.574;2022-12-07T03:17:43;10.43;;;4.73;;
76675;SDS011;65593;55.840;37.574;2022-12-07T03:22:46;9.43;;;4.50;;
76675;SDS011;65593;55.840;37.574;2022-12-07T03:27:57;7.72;;;4.38;;
76675;SDS011;65593;55.840;37.574;2022-12-07T03:33:04;8.13;;;4.13;;
76675;SDS011;65593;55.840;37.574;2022-12-07T03:38:21;13.15;;;4.22;;
76675;SDS011;65593;55.840;37.574;2022-12-07T03:43:23;10.80;;;5.07;;
76675;SDS011;65593;55.840;37.574;2022-12-07T03:48:25;9.70;;;4.53;;
76675;SDS011;65593;55.840;37.574;2022-12-07T03:53:45;10.53;;;4.57;;
76675;SDS011;65593;55.840;37.574;2022-12-07T03:58:49;12.95;;;4.93;;
76675;SDS011;65593;55.840;37.574;2022-12-07T04:03:51;12.27;;;5.95;;
76675;SDS011;65593;55.840;37.574;2022-12-07T04:08:51;10.77;;;4.40;;
76675;SDS011;65593;55.840;37.574;2022-12-07T04:13:52;10.03;;;5.03;;
76675;SDS011;65593;55.840;37.574;2022-12-07T04:19:12;13.23;;;4.93;;
76675;SDS011;65593;55.840;37.574;2022-12-07T04:24:13;12.63;;;4.90;;
76675;SDS011;65593;55.840;37.574;2022-12-07T04:29:15;18.52;;;5.70;;
76675;SDS011;65593;55.840;37.574;2022-12-07T04:34:17;25.08;;;6.97;;
76675;SDS011;65593;55.840;37.574;2022-12-07T04:39:20;27.53;;;7.17;;
76675;SDS011;65593;55.840;37.574;2022-12-07T04:44:23;23.17;;;6.90;;
76675;SDS011;65593;55.840;37.574;2022-12-07T04:49:25;32.70;;;7.00;;
76675;SDS011;65593;55.840;37.574;2022-12-07T04:54:25;23.25;;;6.18;;
76675;SDS011;65593;55.840;37.574;2022-12-07T04:59:26;22.47;;;6.40;;
76675;SDS011;65593;55.840;37.574;2022-12-07T05:04:27;18.30;;;6.50;;
76675;SDS011;65593;55.840;37.574;2022-12-07T05:09:27;19.30;;;6.20;;
76675;SDS011;65593;55.840;37.574;2022-12-07T05:14:28;20.65;;;6.22;;
76675;SDS011;65593;55.840;37.574;2022-12-07T05:19:28;17.30;;;6.82;;
76675;SDS011;65593;55.840;37.574;2022-12-07T05:24:29;15.03;;;6.23;;
76675;SDS011;65593;55.840;37.574;2022-12-07T05:29:29;18.30;;;6.73;;
76675;SDS011;65593;55.840;37.574;2022-12-07T05:34:30;14.20;;;5.80;;
76675;SDS011;65593;55.840;37.574;2022-12-07T05:39:31;22.37;;;6.07;;
76675;SDS011;65593;55.840;37.574;2022-12-07T05:44:31;17.00;;;5.97;;
76675;SDS011;65593;55.840;37.574;2022-12-07T05:49:32;17.60;;;5.80;;
76675;SDS011;65593;55.840;37.574;2022-12-07T05:54:32;17.07;;;6.80;;
76675;SDS011;65593;55.840;37.574;2022-12-07T05:59:34;15.73;;;6.95;;
76675;SDS011;65593;55.840;37.574;2022-12-07T06:04:36;20.37;;;7.77;;
76675;SDS011;65593;55.840;37.574;2022-12-07T06:09:38;20.20;;;8.13;;
76675;SDS011;65593;55.840;37.574;2022-12-07T06:14:39;16.07;;;6.40;;
76675;SDS011;65593;55.840;37.574;2022-12-07T06:19:40;13.52;;;6.63;;
76675;SDS011;65593;55.840;37.574;2022-12-07T06:24:42;16.13;;;6.23;;
76675;SDS011;65593;55.840;37.574;2022-12-07T06:29:42;16.88;;;6.63;;
76675;SDS011;65593;55.840;37.574;2022-12-07T06:34:43;17.92;;;6.90;;
76675;SDS011;65593;55.840;37.574;2022-12-07T06:39:43;21.60;;;7.60;;
76675;SDS011;65593;55.840;37.574;2022-12-07T06:44:45;18.48;;;7.20;;
76675;SDS011;65593;55.840;37.574;2022-12-07T06:49:45;17.63;;;6.83;;
76675;SDS011;65593;55.840;37.574;2022-12-07T06:54:46;20.63;;;7.60;;
76675;SDS011;65593;55.840;37.574;2022-12-07T06:59:46;17.87;;;6.93;;
76675;SDS011;65593;55.840;37.574;2022-12-07T07:04:47;25.80;;;7.93;;
76675;SDS011;65593;55.840;37.574;2022-12-07T07:09:47;20.83;;;7.75;;
76675;SDS011;65593;55.840;37.574;2022-12-07T07:14:48;16.77;;;6.77;;
76675;SDS011;65593;55.840;37.574;2022-12-07T07:19:48;15.87;;;7.57;;
76675;SDS011;65593;55.840;37.574;2022-12-07T07:24:49;16.73;;;8.10;;
76675;SDS011;65593;55.840;37.574;2022-12-07T07:29:50;17.23;;;6.93;;
76675;SDS011;65593;55.840;37.574;2022-12-07T07:34:50;20.53;;;7.27;;
76675;SDS011;65593;55.840;37.574;2022-12-07T07:39:51;18.95;;;8.23;;
76675;SDS011;65593;55.840;37.574;2022-12-07T07:44:51;17.83;;;7.87;;
76675;SDS011;65593;55.840;37.574;2022-12-07T07:49:52;18.37;;;8.50;;
76675;SDS011;65593;55.840;37.574;2022-12-07T07:54:52;14.20;;;7.10;;
76675;SDS011;65593;55.840;37.574;2022-12-07T07:59:53;19.20;;;7.30;;
76675;SDS011;65593;55.840;37.574;2022-12-07T08:04:53;21.13;;;7.00;;
76675;SDS011;65593;55.840;37.574;2022-12-07T08:09:54;18.63;;;7.47;;
76675;SDS011;65593;55.840;37.574;2022-12-07T08:14:54;20.00;;;7.67;;
76675;SDS011;65593;55.840;37.574;2022-12-07T08:19:55;15.67;;;7.10;;
76675;SDS011;65593;55.840;37.574;2022-12-07T08:24:56;19.85;;;7.75;;
76675;SDS011;65593;55.840;37.574;2022-12-07T08:29:57;16.63;;;8.03;;
76675;SDS011;65593;55.840;37.574;2022-12-07T08:34:57;16.43;;;7.60;;
76675;SDS011;65593;55.840;37.574;2022-12-07T08:39:58;18.17;;;7.43;;
76675;SDS011;65593;55.840;37.574;2022-12-07T08:44:58;18.85;;;7.18;;
76675;SDS011;65593;55.840;37.574;2022-12-07T08:49:59;16.35;;;7.60;;
76675;SDS011;65593;55.840;37.574;2022-12-07T08:55:03;25.23;;;7.20;;
76675;SDS011;65593;55.840;37.574;2022-12-07T09:00:05;18.13;;;7.60;;
76675;SDS011;65593;55.840;37.574;2022-12-07T09:05:07;18.33;;;7.77;;
76675;SDS011;65593;55.840;37.574;2022-12-07T09:10:08;15.93;;;7.05;;
76675;SDS011;65593;55.840;37.574;2022-12-07T09:15:09;17.80;;;7.07;;
76675;SDS011;65593;55.840;37.574;2022-12-07T09:20:10;15.32;;;7.15;;
76675;SDS011;65593;55.840;37.574;2022-12-07T09:25:11;18.93;;;8.23;;
76675;SDS011;65593;55.840;37.574;2022-12-07T09:30:11;18.30;;;6.97;;
76675;SDS011;65593;55.840;37.574;2022-12-07T09:35:12;18.33;;;7.70;;
76675;SDS011;65593;55.840;37.574;2022-12-07T09:40:13;13.35;;;6.53;;
76675;SDS011;65593;55.840;37.574;2022-12-07T09:45:17;18.00;;;7.00;;
76675;SDS011;65593;55.840;37.574;2022-12-07T09:50:30;17.40;;;7.30;;
76675;SDS011;65593;55.840;37.574;2022-12-07T09:55:31;16.53;;;7.83;;
76675;SDS011;65593;55.840;37.574;2022-12-07T10:00:35;22.48;;;7.28;;
76675;SDS011;65593;55.840;37.574;2022-12-07T10:05:37;13.97;;;6.10;;
76675;SDS011;65593;55.840;37.574;2022-12-07T10:10:41;18.73;;;6.95;;
76675;SDS011;65593;55.840;37.574;2022-12-07T10:15:43;17.48;;;6.72;;
76675;SDS011;65593;55.840;37.574;2022-12-07T10:20:45;17.13;;;7.10;;
76675;SDS011;65593;55.840;37.574;2022-12-07T10:25:47;13.73;;;6.82;;
76675;SDS011;65593;55.840;37.574;2022-12-07T10:41:26;15.82;;;7.22;;
76675;SDS011;65593;55.840;37.574;2022-12-07T10:51:52;16.13;;;6.85;;
76675;SDS011;65593;55.840;37.574;2022-12-07T11:24:02;18.88;;;6.32;;
76675;SDS011;65593;55.840;37.574;2022-12-07T11:29:32;24.90;;;6.90;;
76675;SDS011;65593;55.840;37.574;2022-12-07T11:40:03;15.30;;;6.63;;
76675;SDS011;65593;55.840;37.574;2022-12-07T11:50:20;20.53;;;6.50;;
76675;SDS011;65593;55.840;37.574;2022-12-07T11:55:26;20.05;;;6.60;;
76675;SDS011;65593;55.840;37.574;2022-12-07T12:00:28;14.97;;;7.13;;
76675;SDS011;65593;55.840;37.574;2022-12-07T12:05:29;18.53;;;7.57;;
76675;SDS011;65593;55.840;37.574;2022-12-07T12:15:47;14.35;;;6.85;;
76675;SDS011;65593;55.840;37.574;2022-12-07T12:21:03;16.43;;;6.73;;
76675;SDS011;65593;55.840;37.574;2022-12-07T12:26:14;20.45;;;7.43;;
76675;SDS011;65593;55.840;37.574;2022-12-07T12:46:36;18.95;;;7.53;;
76675;SDS011;65593;55.840;37.574;2022-12-07T12:51:38;17.23;;;8.07;;
76675;SDS011;65593;55.840;37.574;2022-12-07T12:56:49;19.00;;;8.05;;
76675;SDS011;65593;55.840;37.574;2022-12-07T13:02:46;17.33;;;7.90;;
76675;SDS011;65593;55.840;37.574;2022-12-07T13:28:48;22.77;;;8.33;;
76675;SDS011;65593;55.840;37.574;2022-12-07T13:39:36;17.75;;;8.65;;
76675;SDS011;65593;55.840;37.574;2022-12-07T13:44:46;16.65;;;7.78;;
76675;SDS011;65593;55.840;37.574;2022-12-07T13:49:47;19.57;;;8.00;;
76675;SDS011;65593;55.840;37.574;2022-12-07T13:55:01;18.10;;;8.15;;
76675;SDS011;65593;55.840;37.574;2022-12-07T14:00:13;20.67;;;8.13;;
76675;SDS011;65593;55.840;37.574;2022-12-07T14:05:26;19.95;;;8.07;;
76675;SDS011;65593;55.840;37.574;2022-12-07T14:15:31;22.63;;;8.03;;
76675;SDS011;65593;55.840;37.574;2022-12-07T14:20:38;21.27;;;7.77;;
76675;SDS011;65593;55.840;37.574;2022-12-07T14:25:50;18.80;;;8.10;;
76675;SDS011;65593;55.840;37.574;2022-12-07T14:30:52;20.70;;;7.57;;
76675;SDS011;65593;55.840;37.574;2022-12-07T14:35:53;18.75;;;8.02;;
76675;SDS011;65593;55.840;37.574;2022-12-07T14:40:55;21.30;;;8.50;;
76675;SDS011;65593;55.840;37.574;2022-12-07T14:46:19;23.60;;;7.90;;
76675;SDS011;65593;55.840;37.574;2022-12-07T14:51:20;18.43;;;9.00;;
76675;SDS011;65593;55.840;37.574;2022-12-07T14:56:20;15.90;;;7.47;;
76675;SDS011;65593;55.840;37.574;2022-12-07T15:01:21;21.85;;;8.10;;
76675;SDS011;65593;55.840;37.574;2022-12-07T15:06:22;21.63;;;7.50;;
76675;SDS011;65593;55.840;37.574;2022-12-07T15:11:24;16.53;;;7.97;;
76675;SDS011;65593;55.840;37.574;2022-12-07T15:16:24;19.73;;;7.55;;
76675;SDS011;65593;55.840;37.574;2022-12-07T15:21:25;17.80;;;7.97;;
76675;SDS011;65593;55.840;37.574;2022-12-07T15:26:26;19.20;;;7.17;;
76675;SDS011;65593;55.840;37.574;2022-12-07T15:31:26;15.83;;;8.37;;
76675;SDS011;65593;55.840;37.574;2022-12-07T15:36:27;18.83;;;7.97;;
76675;SDS011;65593;55.840;37.574;2022-12-07T15:41:30;21.67;;;8.43;;
76675;SDS011;65593;55.840;37.574;2022-12-07T15:46:31;21.15;;;9.55;;
76675;SDS011;65593;55.840;37.574;2022-12-07T15:51:37;20.33;;;8.33;;
76675;SDS011;65593;55.840;37.574;2022-12-07T15:56:37;21.67;;;8.97;;
76675;SDS011;65593;55.840;37.574;2022-12-07T16:01:38;16.08;;;8.15;;
76675;SDS011;65593;55.840;37.574;2022-12-07T16:06:39;21.57;;;8.90;;
76675;SDS011;65593;55.840;37.574;2022-12-07T16:11:40;26.93;;;8.03;;
76675;SDS011;65593;55.840;37.574;2022-12-07T16:16:42;19.33;;;8.35;;
76675;SDS011;65593;55.840;37.574;2022-12-07T16:21:42;20.43;;;7.43;;
76675;SDS011;65593;55.840;37.574;2022-12-07T16:26:43;20.60;;;7.72;;
76675;SDS011;65593;55.840;37.574;2022-12-07T16:31:44;16.73;;;7.67;;
76675;SDS011;65593;55.840;37.574;2022-12-07T16:36:45;19.48;;;8.70;;
76675;SDS011;65593;55.840;37.574;2022-12-07T16:41:46;17.63;;;6.55;;
76675;SDS011;65593;55.840;37.574;2022-12-07T16:46:47;17.33;;;7.47;;
76675;SDS011;65593;55.840;37.574;2022-12-07T16:51:50;23.27;;;9.00;;
76675;SDS011;65593;55.840;37.574;2022-12-07T16:56:53;20.35;;;8.05;;
76675;SDS011;65593;55.840;37.574;2022-12-07T17:01:54;20.92;;;8.40;;
76675;SDS011;65593;55.840;37.574;2022-12-07T17:06:54;19.97;;;8.93;;
76675;SDS011;65593;55.840;37.574;2022-12-07T17:11:55;17.67;;;8.47;;
76675;SDS011;65593;55.840;37.574;2022-12-07T17:16:56;18.45;;;7.25;;
76675;SDS011;65593;55.840;37.574;2022-12-07T17:21:56;16.60;;;7.35;;
76675;SDS011;65593;55.840;37.574;2022-12-07T17:26:57;20.13;;;8.57;;
76675;SDS011;65593;55.840;37.574;2022-12-07T17:31:57;15.90;;;7.93;;
76675;SDS011;65593;55.840;37.574;2022-12-07T17:36:58;18.63;;;7.73;;
76675;SDS011;65593;55.840;37.574;2022-12-07T17:41:58;19.05;;;7.72;;
76675;SDS011;65593;55.840;37.574;2022-12-07T17:47:17;21.08;;;7.72;;
76675;SDS011;65593;55.840;37.574;2022-12-07T17:52:20;22.00;;;8.30;;
76675;SDS011;65593;55.840;37.574;2022-12-07T17:57:40;17.87;;;8.60;;
76675;SDS011;65593;55.840;37.574;2022-12-07T18:02:41;16.70;;;7.80;;
76675;SDS011;65593;55.840;37.574;2022-12-07T18:07:41;17.87;;;7.23;;
76675;SDS011;65593;55.840;37.574;2022-12-07T18:12:42;15.13;;;7.43;;
76675;SDS011;65593;55.840;37.574;2022-12-07T18:17:42;18.67;;;8.37;;
76675;SDS011;65593;55.840;37.574;2022-12-07T18:22:43;19.48;;;6.88;;
76675;SDS011;65593;55.840;37.574;2022-12-07T18:27:44;23.37;;;7.47;;
76675;SDS011;65593;55.840;37.574;2022-12-07T18:32:44;22.73;;;8.57;;
76675;SDS011;65593;55.840;37.574;2022-12-07T18:37:45;16.57;;;7.37;;
76675;SDS011;65593;55.840;37.574;2022-12-07T18:42:45;16.33;;;7.87;;
76675;SDS011;65593;55.840;37.574;2022-12-07T18:47:46;17.47;;;8.20;;
76675;SDS011;65593;55.840;37.574;2022-12-07T18:52:47;16.38;;;7.53;;
76675;SDS011;65593;55.840;37.574;2022-12-07T18:57:47;19.37;;;7.27;;
76675;SDS011;65593;55.840;37.574;2022-12-07T19:02:48;17.93;;;7.47;;
76675;SDS011;65593;55.840;37.574;2022-12-07T19:07:49;15.38;;;6.82;;
76675;SDS011;65593;55.840;37.574;2022-12-07T19:12:51;19.73;;;7.20;;
76675;SDS011;65593;55.840;37.574;2022-12-07T19:17:51;16.30;;;6.67;;
76675;SDS011;65593;55.840;37.574;2022-12-07T19:22:52;21.77;;;7.10;;
76675;SDS011;65593;55.840;37.574;2022-12-07T19:27:52;20.50;;;6.83;;
76675;SDS011;65593;55.840;37.574;2022-12-07T19:32:53;18.92;;;7.60;;
76675;SDS011;65593;55.840;37.574;2022-12-07T19:37:54;15.73;;;6.03;;
76675;SDS011;65593;55.840;37.574;2022-12-07T19:42:54;15.27;;;6.77;;
76675;SDS011;65593;55.840;37.574;2022-12-07T19:47:55;15.23;;;6.40;;
76675;SDS011;65593;55.840;37.574;2022-12-07T19:52:55;23.70;;;7.27;;
76675;SDS011;65593;55.840;37.574;2022-12-07T19:57:56;18.77;;;7.13;;
76675;SDS011;65593;55.840;37.574;2022-12-07T20:02:56;15.35;;;7.18;;
76675;SDS011;65593;55.840;37.574;2022-12-07T20:07:57;16.37;;;6.57;;
76675;SDS011;65593;55.840;37.574;2022-12-07T20:12:57;14.17;;;6.67;;
76675;SDS011;65593;55.840;37.574;2022-12-07T20:18:16;15.18;;;6.97;;
76675;SDS011;65593;55.840;37.574;2022-12-07T20:23:17;19.87;;;7.13;;
76675;SDS011;65593;55.840;37.574;2022-12-07T20:28:17;18.23;;;7.40;;
76675;SDS011;65593;55.840;37.574;2022-12-07T20:33:18;14.57;;;5.87;;
76675;SDS011;65593;55.840;37.574;2022-12-07T20:38:19;16.70;;;6.78;;
76675;SDS011;65593;55.840;37.574;2022-12-07T20:43:20;14.43;;;6.80;;
76675;SDS011;65593;55.840;37.574;2022-12-07T20:48:21;14.67;;;7.43;;
76675;SDS011;65593;55.840;37.574;2022-12-07T20:53:22;16.48;;;7.00;;
76675;SDS011;65593;55.840;37.574;2022-12-07T20:58:22;18.27;;;7.13;;
76675;SDS011;65593;55.840;37.574;2022-12-07T21:03:23;14.73;;;6.27;;
76675;SDS011;65593;55.840;37.574;2022-12-07T21:08:23;11.97;;;6.03;;
76675;SDS011;65593;55.840;37.574;2022-12-07T21:13:24;15.33;;;6.73;;
76675;SDS011;65593;55.840;37.574;2022-12-07T21:18:24;18.92;;;6.82;;
76675;SDS011;65593;55.840;37.574;2022-12-07T21:23:25;18.85;;;7.40;;
76675;SDS011;65593;55.840;37.574;2022-12-07T21:28:27;15.07;;;6.47;;
76675;SDS011;65593;55.840;37.574;2022-12-07T21:33:27;16.55;;;6.70;;
76675;SDS011;65593;55.840;37.574;2022-12-07T21:38:30;14.60;;;6.72;;
76675;SDS011;65593;55.840;37.574;2022-12-07T21:43:31;19.00;;;6.90;;
76675;SDS011;65593;55.840;37.574;2022-12-07T21:48:32;14.65;;;6.82;;
76675;SDS011;65593;55.840;37.574;2022-12-07T21:53:32;15.63;;;6.50;;
76675;SDS011;65593;55.840;37.574;2022-12-07T21:58:33;15.77;;;6.18;;
76675;SDS011;65593;55.840;37.574;2022-12-07T22:03:34;17.60;;;6.45;;
76675;SDS011;65593;55.840;37.574;2022-12-07T22:08:34;14.43;;;7.03;;
76675;SDS011;65593;55.840;37.574;2022-12-07T22:13:36;21.97;;;7.23;;
76675;SDS011;65593;55.840;37.574;2022-12-07T22:18:55;14.88;;;6.38;;
76675;SDS011;65593;55.840;37.574;2022-12-07T22:23:59;15.60;;;6.22;;
76675;SDS011;65593;55.840;37.574;2022-12-07T22:29:01;22.37;;;6.53;;
76675;SDS011;65593;55.840;37.574;2022-12-07T22:34:01;16.52;;;7.28;;
76675;SDS011;65593;55.840;37.574;2022-12-07T22:39:02;15.90;;;7.13;;
76675;SDS011;65593;55.840;37.574;2022-12-07T22:44:04;20.30;;;7.47;;
76675;SDS011;65593;55.840;37.574;2022-12-07T22:49:06;16.83;;;6.78;;
76675;SDS011;65593;55.840;37.574;2022-12-07T22:54:08;15.73;;;7.63;;
76675;SDS011;65593;55.840;37.574;2022-12-07T22:59:13;18.35;;;7.50;;
76675;SDS011;65593;55.840;37.574;2022-12-07T23:04:13;17.77;;;6.73;;
76675;SDS011;65593;55.840;37.574;2022-12-07T23:09:14;17.13;;;7.23;;
76675;SDS011;65593;55.840;37.574;2022-12-07T23:14:16;18.77;;;7.23;;
76675;SDS011;65593;55.840;37.574;2022-12-07T23:19:37;21.85;;;7.72;;
76675;SDS011;65593;55.840;37.574;2022-12-07T23:24:38;27.87;;;9.00;;
76675;SDS011;65593;55.840;37.574;2022-12-07T23:29:39;18.63;;;7.87;;
76675;SDS011;65593;55.840;37.574;2022-12-07T23:34:39;16.70;;;7.78;;
76675;SDS011;65593;55.840;37.574;2022-12-07T23:39:42;18.60;;;7.57;;
76675;SDS011;65593;55.840;37.574;2022-12-07T23:44:43;16.00;;;8.00;;
76675;SDS011;65593;55.840;37.574;2022-12-07T23:49:44;18.48;;;7.25;;
76675;SDS011;65593;55.840;37.574;2022-12-07T23:54:44;14.07;;;6.40;;
76675;SDS011;65593;55.840;37.574;2022-12-07T23:59:45;15.37;;;6.77;;
